LIRQ/FLR METAR and TAF weather

Enter ICAO airport designator
Station Type Date Time Source
LIRQ METAR 2020/10/22 02:50 UTC NOAA

LIRQ 220250Z AUTO VRB01KT 9999 BKN051/// 11/10 Q1024


Station Type Date Time Source
LIRQ Decoded METAR 2020/10/22 02:50 UTC NOAA

Firenze / Peretola, Italy (LIRQ) 43-48N 011-12E 38M
Oct 21, 2020 - 10:50 PM EDT / 2020.10.22 0250 UTC
Wind: Variable at 1 MPH (1 KT):0
Visibility: greater than 7 mile(s):0
Sky conditions: mostly cloudy
Temperature: 51 F (11 C)
Dew Point: 50 F (10 C)
Relative Humidity: 93%
Pressure (altimeter): 30.24 in. Hg (1024 hPa)
ob: LIRQ 220250Z AUTO VRB01KT 9999 BKN051/// 11/10 Q1024
cycle: 3

Station Type Date Time Source
LIRQ TAF 2020/10/21 18:22 UTC NOAA

TAF LIRQ 211700Z 2118/2218 VRB05KT 9999 FEW040

Example: see airport list